sensor_id;sensor_type;location;lat;lon;timestamp;pressure;altitude;pressure_sealevel;temperature;humidity
35649;BME280;21768;48.562;13.414;2022-11-14T00:00:07;97519.22;;;10.95;54.75
35649;BME280;21768;48.562;13.414;2022-11-14T00:02:33;97524.16;;;10.93;54.77
35649;BME280;21768;48.562;13.414;2022-11-14T00:04:58;97520.66;;;10.91;55.28
35649;BME280;21768;48.562;13.414;2022-11-14T00:07:23;97522.59;;;10.82;55.60
35649;BME280;21768;48.562;13.414;2022-11-14T00:09:49;97518.13;;;10.78;55.48
35649;BME280;21768;48.562;13.414;2022-11-14T00:12:14;97514.16;;;10.81;55.41
35649;BME280;21768;48.562;13.414;2022-11-14T00:14:40;97518.63;;;10.85;55.55
35649;BME280;21768;48.562;13.414;2022-11-14T00:17:05;97525.53;;;10.88;55.15
35649;BME280;21768;48.562;13.414;2022-11-14T00:19:30;97515.59;;;10.91;55.00
35649;BME280;21768;48.562;13.414;2022-11-14T00:21:56;97517.34;;;10.92;54.94
35649;BME280;21768;48.562;13.414;2022-11-14T00:24:21;97509.78;;;10.92;54.95
35649;BME280;21768;48.562;13.414;2022-11-14T00:26:47;97511.75;;;10.96;54.43
35649;BME280;21768;48.562;13.414;2022-11-14T00:29:14;97504.47;;;11.01;54.80
35649;BME280;21768;48.562;13.414;2022-11-14T00:31:40;97496.78;;;10.99;55.06
35649;BME280;21768;48.562;13.414;2022-11-14T00:34:06;97502.63;;;10.98;54.81
35649;BME280;21768;48.562;13.414;2022-11-14T00:36:32;97510.19;;;10.98;54.96
35649;BME280;21768;48.562;13.414;2022-11-14T00:38:57;97504.94;;;10.95;54.85
35649;BME280;21768;48.562;13.414;2022-11-14T00:41:23;97499.00;;;10.95;55.25
35649;BME280;21768;48.562;13.414;2022-11-14T00:43:48;97492.88;;;10.91;55.27
35649;BME280;21768;48.562;13.414;2022-11-14T00:46:14;97494.38;;;10.87;55.32
35649;BME280;21768;48.562;13.414;2022-11-14T00:48:39;97490.19;;;10.88;55.51
35649;BME280;21768;48.562;13.414;2022-11-14T00:51:05;97486.78;;;10.87;55.43
35649;BME280;21768;48.562;13.414;2022-11-14T00:53:30;97494.38;;;10.87;55.91
35649;BME280;21768;48.562;13.414;2022-11-14T00:55:56;97486.88;;;10.89;55.79
35649;BME280;21768;48.562;13.414;2022-11-14T00:58:21;97480.16;;;10.89;55.52
35649;BME280;21768;48.562;13.414;2022-11-14T01:00:47;97476.00;;;10.90;55.73
35649;BME280;21768;48.562;13.414;2022-11-14T01:03:12;97489.59;;;10.92;55.47
35649;BME280;21768;48.562;13.414;2022-11-14T01:05:46;97484.53;;;10.92;55.59
35649;BME280;21768;48.562;13.414;2022-11-14T01:08:13;97484.34;;;10.89;55.50
35649;BME280;21768;48.562;13.414;2022-11-14T01:10:44;97480.66;;;10.84;55.86
35649;BME280;21768;48.562;13.414;2022-11-14T01:13:09;97480.66;;;10.84;55.75
35649;BME280;21768;48.562;13.414;2022-11-14T01:15:43;97471.16;;;10.80;55.77
35649;BME280;21768;48.562;13.414;2022-11-14T01:18:15;97460.94;;;10.78;56.19
35649;BME280;21768;48.562;13.414;2022-11-14T01:20:42;97461.22;;;10.70;56.24
35649;BME280;21768;48.562;13.414;2022-11-14T01:23:10;97455.69;;;10.62;56.72
35649;BME280;21768;48.562;13.414;2022-11-14T01:25:36;97452.41;;;10.63;56.60
35649;BME280;21768;48.562;13.414;2022-11-14T01:28:11;97450.03;;;10.66;56.44
35649;BME280;21768;48.562;13.414;2022-11-14T01:30:38;97462.75;;;10.68;56.43
35649;BME280;21768;48.562;13.414;2022-11-14T01:33:04;97457.91;;;10.71;56.26
35649;BME280;21768;48.562;13.414;2022-11-14T01:35:31;97459.56;;;10.70;56.29
35649;BME280;21768;48.562;13.414;2022-11-14T01:37:56;97459.25;;;10.66;56.71
35649;BME280;21768;48.562;13.414;2022-11-14T01:40:22;97449.00;;;10.63;56.85
35649;BME280;21768;48.562;13.414;2022-11-14T01:48:49;97438.66;;;10.46;57.42
35649;BME280;21768;48.562;13.414;2022-11-14T01:51:29;97436.81;;;10.44;57.44
35649;BME280;21768;48.562;13.414;2022-11-14T01:53:58;97439.31;;;10.44;57.43
35649;BME280;21768;48.562;13.414;2022-11-14T01:56:32;97438.00;;;10.49;57.27
35649;BME280;21768;48.562;13.414;2022-11-14T01:59:02;97433.06;;;10.50;57.25
35649;BME280;21768;48.562;13.414;2022-11-14T02:01:31;97431.97;;;10.47;57.36
35649;BME280;21768;48.562;13.414;2022-11-14T02:03:59;97428.69;;;10.48;57.40
35649;BME280;21768;48.562;13.414;2022-11-14T02:06:29;97429.34;;;10.45;57.55
35649;BME280;21768;48.562;13.414;2022-11-14T02:08:55;97435.25;;;10.46;57.42
35649;BME280;21768;48.562;13.414;2022-11-14T02:11:22;97423.03;;;10.39;57.32
35649;BME280;21768;48.562;13.414;2022-11-14T02:13:47;97430.16;;;10.19;57.65
35649;BME280;21768;48.562;13.414;2022-11-14T02:16:14;97431.84;;;10.07;58.24
35649;BME280;21768;48.562;13.414;2022-11-14T02:18:39;97432.91;;;10.11;58.13
35649;BME280;21768;48.562;13.414;2022-11-14T02:21:05;97430.09;;;10.06;58.44
35649;BME280;21768;48.562;13.414;2022-11-14T02:23:31;97433.06;;;10.01;58.62
35649;BME280;21768;48.562;13.414;2022-11-14T02:25:57;97433.06;;;10.01;58.53
35649;BME280;21768;48.562;13.414;2022-11-14T02:28:23;97437.34;;;10.02;58.68
35649;BME280;21768;48.562;13.414;2022-11-14T02:30:48;97440.00;;;10.16;58.44
35649;BME280;21768;48.562;13.414;2022-11-14T02:33:14;97452.22;;;10.10;58.80
35649;BME280;21768;48.562;13.414;2022-11-14T02:35:39;97444.13;;;10.03;58.81
35649;BME280;21768;48.562;13.414;2022-11-14T02:38:05;97433.06;;;10.01;59.22
35649;BME280;21768;48.562;13.414;2022-11-14T02:40:31;97422.94;;;9.87;59.56
35649;BME280;21768;48.562;13.414;2022-11-14T02:42:56;97418.13;;;9.79;59.52
35649;BME280;21768;48.562;13.414;2022-11-14T02:45:22;97429.63;;;9.87;59.39
35649;BME280;21768;48.562;13.414;2022-11-14T02:47:48;97426.16;;;9.98;59.41
35649;BME280;21768;48.562;13.414;2022-11-14T02:50:13;97428.44;;;10.07;59.22
35649;BME280;21768;48.562;13.414;2022-11-14T02:52:38;97418.00;;;10.14;58.67
35649;BME280;21768;48.562;13.414;2022-11-14T02:55:04;97419.19;;;10.19;58.58
35649;BME280;21768;48.562;13.414;2022-11-14T02:57:29;97413.59;;;10.23;58.62
35649;BME280;21768;48.562;13.414;2022-11-14T02:59:55;97422.22;;;10.27;58.66
35649;BME280;21768;48.562;13.414;2022-11-14T03:02:20;97424.19;;;10.31;58.46
35649;BME280;21768;48.562;13.414;2022-11-14T03:04:46;97421.28;;;10.38;58.28
35649;BME280;21768;48.562;13.414;2022-11-14T03:07:11;97414.97;;;10.44;58.20
35649;BME280;21768;48.562;13.414;2022-11-14T03:09:36;97410.25;;;10.49;58.08
35649;BME280;21768;48.562;13.414;2022-11-14T03:12:02;97407.81;;;10.50;58.20
35649;BME280;21768;48.562;13.414;2022-11-14T03:14:29;97396.50;;;10.57;57.59
35649;BME280;21768;48.562;13.414;2022-11-14T03:16:55;97387.56;;;10.62;57.39
35649;BME280;21768;48.562;13.414;2022-11-14T03:19:20;97390.97;;;10.63;57.14
35649;BME280;21768;48.562;13.414;2022-11-14T03:21:46;97391.34;;;10.69;57.31
35649;BME280;21768;48.562;13.414;2022-11-14T03:24:11;97390.38;;;10.67;57.27
35649;BME280;21768;48.562;13.414;2022-11-14T03:26:37;97396.09;;;10.64;57.50
35649;BME280;21768;48.562;13.414;2022-11-14T03:29:03;97405.34;;;10.64;57.47
35649;BME280;21768;48.562;13.414;2022-11-14T03:31:28;97395.41;;;10.67;57.17
35649;BME280;21768;48.562;13.414;2022-11-14T03:33:53;97387.06;;;10.68;57.03
35649;BME280;21768;48.562;13.414;2022-11-14T03:36:19;97394.63;;;10.68;57.17
35649;BME280;21768;48.562;13.414;2022-11-14T03:38:44;97407.75;;;10.75;56.91
35649;BME280;21768;48.562;13.414;2022-11-14T03:41:10;97404.56;;;10.78;56.88
35649;BME280;21768;48.562;13.414;2022-11-14T03:43:35;97400.28;;;10.77;56.91
35649;BME280;21768;48.562;13.414;2022-11-14T03:46:01;97398.72;;;10.79;56.67
35649;BME280;21768;48.562;13.414;2022-11-14T03:48:28;97406.50;;;10.82;56.48
35649;BME280;21768;48.562;13.414;2022-11-14T03:50:54;97397.97;;;10.80;56.39
35649;BME280;21768;48.562;13.414;2022-11-14T03:53:19;97403.88;;;10.80;56.48
35649;BME280;21768;48.562;13.414;2022-11-14T03:55:45;97403.88;;;10.80;56.56
35649;BME280;21768;48.562;13.414;2022-11-14T03:58:10;97394.66;;;10.81;56.55
35649;BME280;21768;48.562;13.414;2022-11-14T04:00:36;97399.72;;;10.81;56.53
35649;BME280;21768;48.562;13.414;2022-11-14T04:03:02;97408.81;;;10.79;56.56
35649;BME280;21768;48.562;13.414;2022-11-14T04:05:28;97404.56;;;10.78;56.48
35649;BME280;21768;48.562;13.414;2022-11-14T04:07:53;97403.59;;;10.76;56.52
35649;BME280;21768;48.562;13.414;2022-11-14T04:10:19;97398.34;;;10.73;56.52
35649;BME280;21768;48.562;13.414;2022-11-14T04:12:48;97390.66;;;10.71;56.53
35649;BME280;21768;48.562;13.414;2022-11-14T04:15:15;97393.09;;;10.70;56.76
35649;BME280;21768;48.562;13.414;2022-11-14T04:17:40;97403.94;;;10.69;56.60
35649;BME280;21768;48.562;13.414;2022-11-14T04:20:06;97392.13;;;10.68;56.71
35649;BME280;21768;48.562;13.414;2022-11-14T04:22:31;97389.50;;;10.66;56.63
35649;BME280;21768;48.562;13.414;2022-11-14T04:24:57;97393.66;;;10.66;56.97
35649;BME280;21768;48.562;13.414;2022-11-14T04:27:22;97390.97;;;10.63;56.86
35649;BME280;21768;48.562;13.414;2022-11-14T04:29:47;97388.44;;;10.63;56.72
35649;BME280;21768;48.562;13.414;2022-11-14T04:32:13;97393.50;;;10.63;56.81
35649;BME280;21768;48.562;13.414;2022-11-14T04:34:38;97394.28;;;10.62;56.98
35649;BME280;21768;48.562;13.414;2022-11-14T04:37:03;97400.84;;;10.60;57.24
35649;BME280;21768;48.562;13.414;2022-11-14T04:39:29;97394.84;;;10.57;57.17
35649;BME280;21768;48.562;13.414;2022-11-14T04:41:54;97394.84;;;10.57;57.24
35649;BME280;21768;48.562;13.414;2022-11-14T04:44:19;97398.13;;;10.56;57.04
35649;BME280;21768;48.562;13.414;2022-11-14T04:46:45;97399.69;;;10.54;57.16
35649;BME280;21768;48.562;13.414;2022-11-14T04:49:10;97396.97;;;10.51;57.44
35649;BME280;21768;48.562;13.414;2022-11-14T04:51:35;97400.81;;;10.46;57.62
35649;BME280;21768;48.562;13.414;2022-11-14T04:54:01;97394.50;;;10.40;58.08
35649;BME280;21768;48.562;13.414;2022-11-14T04:56:26;97403.53;;;10.36;57.79
35649;BME280;21768;48.562;13.414;2022-11-14T04:58:53;97398.28;;;10.33;58.08
35649;BME280;21768;48.562;13.414;2022-11-14T05:01:19;97390.53;;;10.30;57.75
35649;BME280;21768;48.562;13.414;2022-11-14T05:03:44;97394.50;;;10.27;58.29
35649;BME280;21768;48.562;13.414;2022-11-14T05:06:10;97396.50;;;10.19;58.35
35649;BME280;21768;48.562;13.414;2022-11-14T05:08:35;97398.78;;;10.16;58.56
35649;BME280;21768;48.562;13.414;2022-11-14T05:11:00;97402.56;;;10.09;58.65
35649;BME280;21768;48.562;13.414;2022-11-14T05:13:26;97403.59;;;10.00;59.35
35649;BME280;21768;48.562;13.414;2022-11-14T05:15:51;97410.94;;;9.97;59.01
35649;BME280;21768;48.562;13.414;2022-11-14T05:18:17;97407.44;;;9.95;59.21
35649;BME280;21768;48.562;13.414;2022-11-14T05:20:43;97405.59;;;9.92;59.31
35649;BME280;21768;48.562;13.414;2022-11-14T05:23:20;97408.81;;;9.89;59.45
35649;BME280;21768;48.562;13.414;2022-11-14T05:25:46;97413.72;;;9.88;59.23
35649;BME280;21768;48.562;13.414;2022-11-14T05:28:11;97414.59;;;9.88;59.04
35649;BME280;21768;48.562;13.414;2022-11-14T05:30:37;97407.13;;;9.90;59.42
35649;BME280;21768;48.562;13.414;2022-11-14T05:33:02;97408.59;;;9.86;59.34
35649;BME280;21768;48.562;13.414;2022-11-14T05:35:30;97410.13;;;9.84;59.36
35649;BME280;21768;48.562;13.414;2022-11-14T05:37:56;97415.63;;;9.79;59.48
35649;BME280;21768;48.562;13.414;2022-11-14T05:40:24;97426.16;;;9.73;59.68
35649;BME280;21768;48.562;13.414;2022-11-14T05:42:53;97438.44;;;9.69;60.11
35649;BME280;21768;48.562;13.414;2022-11-14T05:45:19;97438.31;;;9.67;59.90
35649;BME280;21768;48.562;13.414;2022-11-14T05:47:44;97444.13;;;9.66;59.70
35649;BME280;21768;48.562;13.414;2022-11-14T05:50:09;97448.50;;;9.69;59.79
35649;BME280;21768;48.562;13.414;2022-11-14T05:52:35;97450.91;;;9.67;59.80
35649;BME280;21768;48.562;13.414;2022-11-14T05:55:00;97450.72;;;9.64;59.92
35649;BME280;21768;48.562;13.414;2022-11-14T05:57:27;97455.13;;;9.55;60.25
35649;BME280;21768;48.562;13.414;2022-11-14T05:59:53;97453.69;;;9.47;60.62
35649;BME280;21768;48.562;13.414;2022-11-14T06:02:18;97455.78;;;9.41;60.70
35649;BME280;21768;48.562;13.414;2022-11-14T06:04:43;97453.84;;;9.37;60.74
35649;BME280;21768;48.562;13.414;2022-11-14T06:07:09;97451.00;;;9.32;61.00
35649;BME280;21768;48.562;13.414;2022-11-14T06:09:34;97449.69;;;9.26;61.11
35649;BME280;21768;48.562;13.414;2022-11-14T06:11:59;97439.94;;;9.18;61.19
35649;BME280;21768;48.562;13.414;2022-11-14T06:14:25;97445.75;;;9.17;61.23
35649;BME280;21768;48.562;13.414;2022-11-14T06:16:50;97448.16;;;9.16;61.44
35649;BME280;21768;48.562;13.414;2022-11-14T06:19:15;97432.88;;;9.13;61.30
35649;BME280;21768;48.562;13.414;2022-11-14T06:21:41;97435.06;;;9.08;61.30
35649;BME280;21768;48.562;13.414;2022-11-14T06:24:06;97441.41;;;9.03;61.71
35649;BME280;21768;48.562;13.414;2022-11-14T06:26:31;97451.22;;;9.00;61.68
35649;BME280;21768;48.562;13.414;2022-11-14T06:28:58;97451.00;;;8.97;62.04
35649;BME280;21768;48.562;13.414;2022-11-14T06:31:24;97451.78;;;8.96;62.17
35649;BME280;21768;48.562;13.414;2022-11-14T06:33:50;97460.84;;;8.94;62.08
35649;BME280;21768;48.562;13.414;2022-11-14T06:36:16;97456.47;;;8.92;62.32
35649;BME280;21768;48.562;13.414;2022-11-14T06:38:42;97456.41;;;8.90;62.48
35649;BME280;21768;48.562;13.414;2022-11-14T06:41:19;97454.84;;;8.92;62.40
35649;BME280;21768;48.562;13.414;2022-11-14T06:43:47;97458.69;;;8.87;62.71
35649;BME280;21768;48.562;13.414;2022-11-14T06:46:16;97456.06;;;8.85;62.60
35649;BME280;21768;48.562;13.414;2022-11-14T06:48:42;97460.44;;;8.88;62.69
35649;BME280;21768;48.562;13.414;2022-11-14T06:51:09;97463.72;;;8.87;63.09
35649;BME280;21768;48.562;13.414;2022-11-14T06:53:35;97469.50;;;8.86;62.92
35649;BME280;21768;48.562;13.414;2022-11-14T06:56:15;97469.06;;;8.92;62.66
35649;BME280;21768;48.562;13.414;2022-11-14T06:58:43;97472.34;;;9.02;62.61
35649;BME280;21768;48.562;13.414;2022-11-14T07:01:11;97469.63;;;9.11;62.38
35649;BME280;21768;48.562;13.414;2022-11-14T07:03:37;97463.72;;;9.10;62.50
35649;BME280;21768;48.562;13.414;2022-11-14T07:06:04;97453.66;;;9.10;62.66
35649;BME280;21768;48.562;13.414;2022-11-14T07:08:30;97452.13;;;9.12;62.70
35649;BME280;21768;48.562;13.414;2022-11-14T07:11:04;97453.09;;;9.14;62.61
35649;BME280;21768;48.562;13.414;2022-11-14T07:13:31;97455.28;;;9.21;62.69
35649;BME280;21768;48.562;13.414;2022-11-14T07:15:56;97457.47;;;9.29;62.49
35649;BME280;21768;48.562;13.414;2022-11-14T07:18:22;97458.44;;;9.31;62.45
35649;BME280;21768;48.562;13.414;2022-11-14T07:20:48;97458.56;;;9.32;62.72
35649;BME280;21768;48.562;13.414;2022-11-14T07:23:14;97457.25;;;9.37;62.71
35649;BME280;21768;48.562;13.414;2022-11-14T07:25:40;97455.56;;;9.49;62.40
35649;BME280;21768;48.562;13.414;2022-11-14T07:28:05;97464.88;;;9.62;62.10
35649;BME280;21768;48.562;13.414;2022-11-14T07:30:32;97468.22;;;9.74;61.65
35649;BME280;21768;48.562;13.414;2022-11-14T07:32:58;97454.81;;;9.87;61.33
35649;BME280;21768;48.562;13.414;2022-11-14T07:35:24;97455.09;;;9.92;61.60
35649;BME280;21768;48.562;13.414;2022-11-14T07:37:50;97455.97;;;9.92;61.77
35649;BME280;21768;48.562;13.414;2022-11-14T07:40:17;97469.78;;;9.97;61.67
35649;BME280;21768;48.562;13.414;2022-11-14T07:42:43;97469.31;;;10.03;61.98
35649;BME280;21768;48.562;13.414;2022-11-14T07:45:10;97477.53;;;10.12;62.05
35649;BME280;21768;48.562;13.414;2022-11-14T07:47:35;97467.63;;;10.27;61.38
35649;BME280;21768;48.562;13.414;2022-11-14T07:50:01;97466.50;;;10.48;61.17
35649;BME280;21768;48.562;13.414;2022-11-14T07:52:26;97450.91;;;10.67;60.77
35649;BME280;21768;48.562;13.414;2022-11-14T07:54:52;97454.84;;;10.88;60.11
35649;BME280;21768;48.562;13.414;2022-11-14T07:57:17;97450.78;;;11.03;60.10
35649;BME280;21768;48.562;13.414;2022-11-14T07:59:42;97454.25;;;11.18;59.22
35649;BME280;21768;48.562;13.414;2022-11-14T08:02:11;97451.06;;;11.34;59.13
35649;BME280;21768;48.562;13.414;2022-11-14T08:04:38;97447.25;;;11.41;58.93
35649;BME280;21768;48.562;13.414;2022-11-14T08:07:04;97448.50;;;11.47;59.06
35649;BME280;21768;48.562;13.414;2022-11-14T08:09:29;97459.88;;;11.54;58.61
35649;BME280;21768;48.562;13.414;2022-11-14T08:11:55;97456.19;;;11.62;58.51
35649;BME280;21768;48.562;13.414;2022-11-14T08:14:20;97445.72;;;11.71;59.06
35649;BME280;21768;48.562;13.414;2022-11-14T08:16:46;97447.41;;;11.83;58.76
35649;BME280;21768;48.562;13.414;2022-11-14T08:19:11;97445.41;;;11.92;58.21
35649;BME280;21768;48.562;13.414;2022-11-14T08:21:36;97453.16;;;12.09;57.65
35649;BME280;21768;48.562;13.414;2022-11-14T08:24:02;97448.09;;;12.23;57.92
35649;BME280;21768;48.562;13.414;2022-11-14T08:26:27;97441.00;;;12.46;57.33
35649;BME280;21768;48.562;13.414;2022-11-14T08:28:53;97437.84;;;12.65;56.91
35649;BME280;21768;48.562;13.414;2022-11-14T08:31:19;97437.34;;;12.85;56.80
35649;BME280;21768;48.562;13.414;2022-11-14T08:33:44;97435.84;;;13.18;56.25
35649;BME280;21768;48.562;13.414;2022-11-14T08:36:10;97433.84;;;13.74;54.98
35649;BME280;21768;48.562;13.414;2022-11-14T08:38:35;97433.63;;;14.35;54.00
35649;BME280;21768;48.562;13.414;2022-11-14T08:41:02;97417.56;;;16.34;49.03
35649;BME280;21768;48.562;13.414;2022-11-14T08:43:31;97420.53;;;18.89;43.66
35649;BME280;21768;48.562;13.414;2022-11-14T08:45:58;97419.56;;;20.56;40.15
35649;BME280;21768;48.562;13.414;2022-11-14T08:48:24;97421.69;;;20.39;39.61
35649;BME280;21768;48.562;13.414;2022-11-14T08:50:49;97414.00;;;19.79;40.40
35649;BME280;21768;48.562;13.414;2022-11-14T08:53:15;97415.03;;;19.86;40.38
35649;BME280;21768;48.562;13.414;2022-11-14T08:55:44;97412.25;;;21.78;36.56
35649;BME280;21768;48.562;13.414;2022-11-14T08:58:09;97417.50;;;23.77;33.09
35649;BME280;21768;48.562;13.414;2022-11-14T09:00:35;97417.94;;;24.87;31.61
35649;BME280;21768;48.562;13.414;2022-11-14T09:03:00;97418.78;;;26.07;29.78
35649;BME280;21768;48.562;13.414;2022-11-14T09:05:31;97420.75;;;26.85;28.08
35649;BME280;21768;48.562;13.414;2022-11-14T09:07:57;97413.84;;;26.90;28.03
35649;BME280;21768;48.562;13.414;2022-11-14T09:10:22;97409.84;;;25.54;29.07
35649;BME280;21768;48.562;13.414;2022-11-14T09:12:54;97422.03;;;24.67;30.16
35649;BME280;21768;48.562;13.414;2022-11-14T09:15:19;97417.56;;;24.49;30.56
35649;BME280;21768;48.562;13.414;2022-11-14T09:17:45;97419.41;;;24.62;30.66
35649;BME280;21768;48.562;13.414;2022-11-14T09:20:10;97422.66;;;24.43;30.03
35649;BME280;21768;48.562;13.414;2022-11-14T09:22:35;97424.94;;;23.01;31.51
35649;BME280;21768;48.562;13.414;2022-11-14T09:25:01;97430.00;;;21.67;32.70
35649;BME280;21768;48.562;13.414;2022-11-14T09:27:27;97428.94;;;20.55;33.74
35649;BME280;21768;48.562;13.414;2022-11-14T09:29:52;97429.69;;;20.20;34.38
35649;BME280;21768;48.562;13.414;2022-11-14T09:32:17;97435.38;;;20.71;34.29
35649;BME280;21768;48.562;13.414;2022-11-14T09:34:43;97424.56;;;21.94;32.55
35649;BME280;21768;48.562;13.414;2022-11-14T09:37:10;97425.34;;;22.76;30.68
35649;BME280;21768;48.562;13.414;2022-11-14T09:39:35;97419.28;;;22.73;30.95
35649;BME280;21768;48.562;13.414;2022-11-14T09:44:52;97405.34;;;23.65;29.54
35649;BME280;21768;48.562;13.414;2022-11-14T09:47:26;97404.75;;;22.77;31.47
35649;BME280;21768;48.562;13.414;2022-11-14T09:49:58;97403.47;;;22.09;31.95
35649;BME280;21768;48.562;13.414;2022-11-14T09:52:37;97405.84;;;21.59;32.95
35649;BME280;21768;48.562;13.414;2022-11-14T09:55:12;97400.06;;;21.31;33.32
35649;BME280;21768;48.562;13.414;2022-11-14T09:57:42;97394.03;;;20.93;33.55
35649;BME280;21768;48.562;13.414;2022-11-14T10:16:03;97373.81;;;23.24;30.59
35649;BME280;21768;48.562;13.414;2022-11-14T10:33:55;97353.22;;;25.99;27.55
35649;BME280;21768;48.562;13.414;2022-11-14T10:38:55;97358.34;;;25.83;28.03
35649;BME280;21768;48.562;13.414;2022-11-14T10:41:26;97355.16;;;26.86;26.95
35649;BME280;21768;48.562;13.414;2022-11-14T10:43:53;97355.13;;;27.22;26.86
35649;BME280;21768;48.562;13.414;2022-11-14T10:46:38;97358.63;;;26.72;27.40
35649;BME280;21768;48.562;13.414;2022-11-14T10:49:18;97357.75;;;26.86;28.07
35649;BME280;21768;48.562;13.414;2022-11-14T10:56:45;97354.47;;;25.11;29.03
35649;BME280;21768;48.562;13.414;2022-11-14T10:59:11;97350.25;;;24.26;29.80
35649;BME280;21768;48.562;13.414;2022-11-14T11:04:21;97350.13;;;22.42;32.16
35649;BME280;21768;48.562;13.414;2022-11-14T11:06:49;97344.69;;;21.83;33.69
35649;BME280;21768;48.562;13.414;2022-11-14T11:09:26;97349.19;;;21.51;33.91
35649;BME280;21768;48.562;13.414;2022-11-14T11:12:16;97345.34;;;21.32;33.89
35649;BME280;21768;48.562;13.414;2022-11-14T11:14:46;97351.50;;;21.03;34.59
35649;BME280;21768;48.562;13.414;2022-11-14T11:19:38;97339.47;;;20.33;35.87
35649;BME280;21768;48.562;13.414;2022-11-14T11:22:04;97340.16;;;19.94;36.35
35649;BME280;21768;48.562;13.414;2022-11-14T11:24:47;97345.00;;;19.55;36.57
35649;BME280;21768;48.562;13.414;2022-11-14T11:32:30;97333.06;;;18.99;38.46
35649;BME280;21768;48.562;13.414;2022-11-14T11:34:56;97330.94;;;18.86;38.19
35649;BME280;21768;48.562;13.414;2022-11-14T11:37:28;97323.81;;;18.76;38.75
35649;BME280;21768;48.562;13.414;2022-11-14T11:39:56;97328.72;;;18.69;39.27
35649;BME280;21768;48.562;13.414;2022-11-14T11:42:32;97330.38;;;18.67;38.59
35649;BME280;21768;48.562;13.414;2022-11-14T11:45:01;97329.91;;;18.54;39.59
35649;BME280;21768;48.562;13.414;2022-11-14T11:47:31;97332.03;;;18.42;39.59
35649;BME280;21768;48.562;13.414;2022-11-14T11:49:59;97336.28;;;19.49;37.94
35649;BME280;21768;48.562;13.414;2022-11-14T11:57:33;97332.06;;;21.50;34.14
35649;BME280;21768;48.562;13.414;2022-11-14T12:00:15;97331.09;;;20.71;35.60
35649;BME280;21768;48.562;13.414;2022-11-14T12:02:45;97329.56;;;20.45;36.18
35649;BME280;21768;48.562;13.414;2022-11-14T12:05:16;97323.34;;;23.36;33.11
35649;BME280;21768;48.562;13.414;2022-11-14T12:07:57;97317.50;;;25.18;30.46
35649;BME280;21768;48.562;13.414;2022-11-14T12:10:27;97320.47;;;24.60;30.48
35649;BME280;21768;48.562;13.414;2022-11-14T12:16:08;97325.78;;;22.71;32.38
35649;BME280;21768;48.562;13.414;2022-11-14T12:21:44;97300.22;;;25.07;30.30
35649;BME280;21768;48.562;13.414;2022-11-14T12:30:11;97314.19;;;30.68;23.52
35649;BME280;21768;48.562;13.414;2022-11-14T12:32:54;97305.16;;;29.68;24.05
35649;BME280;21768;48.562;13.414;2022-11-14T12:35:33;97309.16;;;27.94;25.73
35649;BME280;21768;48.562;13.414;2022-11-14T12:38:02;97303.34;;;26.41;27.04
35649;BME280;21768;48.562;13.414;2022-11-14T12:40:38;97311.97;;;24.72;28.93
35649;BME280;21768;48.562;13.414;2022-11-14T12:43:09;97304.13;;;23.78;29.60
35649;BME280;21768;48.562;13.414;2022-11-14T12:50:52;97295.34;;;21.99;32.97
35649;BME280;21768;48.562;13.414;2022-11-14T12:56:42;97305.06;;;20.92;34.22
35649;BME280;21768;48.562;13.414;2022-11-14T12:59:18;97311.09;;;20.25;34.35
35649;BME280;21768;48.562;13.414;2022-11-14T13:01:46;97297.09;;;19.81;35.29
35649;BME280;21768;48.562;13.414;2022-11-14T13:21:15;97289.91;;;18.29;37.68
35649;BME280;21768;48.562;13.414;2022-11-14T13:24:00;97290.50;;;18.22;37.74
35649;BME280;21768;48.562;13.414;2022-11-14T13:28:54;97298.28;;;17.99;38.60
35649;BME280;21768;48.562;13.414;2022-11-14T13:31:22;97297.34;;;17.97;38.86
35649;BME280;21768;48.562;13.414;2022-11-14T13:33:52;97305.00;;;17.97;38.81
35649;BME280;21768;48.562;13.414;2022-11-14T13:41:41;97305.59;;;17.90;39.15
35649;BME280;21768;48.562;13.414;2022-11-14T13:50:02;97307.78;;;17.80;39.48
35649;BME280;21768;48.562;13.414;2022-11-14T13:52:34;97305.66;;;17.68;40.02
35649;BME280;21768;48.562;13.414;2022-11-14T13:55:03;97321.59;;;17.62;40.21
35649;BME280;21768;48.562;13.414;2022-11-14T13:57:47;97316.31;;;17.58;40.40
35649;BME280;21768;48.562;13.414;2022-11-14T14:00:18;97317.69;;;17.48;40.84
35649;BME280;21768;48.562;13.414;2022-11-14T14:06:03;97315.78;;;17.20;41.83
35649;BME280;21768;48.562;13.414;2022-11-14T14:11:45;97308.75;;;16.92;41.89
35649;BME280;21768;48.562;13.414;2022-11-14T14:16:57;97305.38;;;16.71;43.57
35649;BME280;21768;48.562;13.414;2022-11-14T14:22:10;97321.72;;;16.55;44.03
35649;BME280;21768;48.562;13.414;2022-11-14T14:32:23;97319.91;;;16.32;46.09
35649;BME280;21768;48.562;13.414;2022-11-14T14:34:48;97320.59;;;16.28;45.26
35649;BME280;21768;48.562;13.414;2022-11-14T14:37:20;97323.53;;;16.18;44.82
35649;BME280;21768;48.562;13.414;2022-11-14T14:42:22;97314.06;;;15.94;45.55
35649;BME280;21768;48.562;13.414;2022-11-14T14:44:48;97317.94;;;15.86;45.74
35649;BME280;21768;48.562;13.414;2022-11-14T14:49:59;97315.91;;;15.78;46.71
35649;BME280;21768;48.562;13.414;2022-11-14T14:52:35;97316.97;;;15.63;47.34
35649;BME280;21768;48.562;13.414;2022-11-14T14:55:03;97314.72;;;15.52;47.29
35649;BME280;21768;48.562;13.414;2022-11-14T14:57:30;97315.84;;;15.39;46.74
35649;BME280;21768;48.562;13.414;2022-11-14T14:59:59;97319.47;;;15.25;47.43
35649;BME280;21768;48.562;13.414;2022-11-14T15:02:26;97321.50;;;15.14;48.45
35649;BME280;21768;48.562;13.414;2022-11-14T15:04:53;97320.16;;;15.03;49.21
35649;BME280;21768;48.562;13.414;2022-11-14T15:07:21;97327.25;;;14.92;48.75
35649;BME280;21768;48.562;13.414;2022-11-14T15:09:52;97328.59;;;14.84;49.07
35649;BME280;21768;48.562;13.414;2022-11-14T15:12:18;97326.63;;;14.79;49.18